createdAt,value
2023-02-28T00:01:26.816Z,8.00
2023-02-28T00:04:54.114Z,7.60
2023-02-28T00:08:50.331Z,7.40
2023-02-28T00:15:59.598Z,6.10
2023-02-28T00:19:52.336Z,5.50
2023-02-28T00:23:12.398Z,4.60
2023-02-28T00:27:06.910Z,5.10
2023-02-28T00:38:07.063Z,4.30
2023-02-28T00:41:33.577Z,3.90
2023-02-28T00:45:02.919Z,4.20
2023-02-28T00:48:08.803Z,4.70
2023-02-28T00:55:24.541Z,7.30
2023-02-28T00:58:41.159Z,7.50
2023-02-28T01:01:46.102Z,8.90
2023-02-28T01:04:52.862Z,10.00
2023-02-28T01:08:32.119Z,10.30
2023-02-28T01:11:49.018Z,9.30
2023-02-28T01:22:48.426Z,10.80
2023-02-28T01:26:23.885Z,11.90
2023-02-28T01:29:47.042Z,12.70
2023-02-28T01:32:52.380Z,11.70
2023-02-28T01:36:32.318Z,12.00
2023-02-28T01:39:58.962Z,12.20
2023-02-28T01:43:40.790Z,12.60
2023-02-28T01:51:47.545Z,13.20
2023-02-28T01:54:59.550Z,15.30
2023-02-28T01:58:12.771Z,15.40
2023-02-28T02:01:22.623Z,15.00
2023-02-28T02:04:57.378Z,15.60
2023-02-28T02:08:16.532Z,16.30
2023-02-28T02:11:21.913Z,16.40
2023-02-28T02:14:42.801Z,16.10
2023-02-28T02:17:58.961Z,16.70
2023-02-28T02:22:03.535Z,15.70
2023-02-28T02:26:13.323Z,16.20
2023-02-28T02:29:48.984Z,17.00
2023-02-28T02:33:36.849Z,16.50
2023-02-28T02:37:01.429Z,17.00
2023-02-28T02:45:17.398Z,15.70
2023-02-28T02:48:28.821Z,15.00
2023-02-28T02:51:51.903Z,16.90
2023-02-28T02:55:16.137Z,16.10
2023-02-28T03:03:02.239Z,16.70
2023-02-28T03:06:36.464Z,16.20
2023-02-28T03:10:12.721Z,16.50
2023-02-28T03:14:09.713Z,17.00
2023-02-28T03:18:27.572Z,15.60
2023-02-28T03:21:47.631Z,16.10
2023-02-28T03:24:53.528Z,15.00
2023-02-28T03:28:28.562Z,15.90
2023-02-28T03:32:15.703Z,15.50
2023-02-28T03:36:28.625Z,15.80
2023-02-28T03:40:01.310Z,14.80
2023-02-28T03:43:26.271Z,16.00
2023-02-28T03:46:57.669Z,16.20
2023-02-28T03:50:46.562Z,16.10
2023-02-28T03:54:44.238Z,15.40
2023-02-28T03:58:26.304Z,14.90
2023-02-28T04:01:46.562Z,15.90
2023-02-28T04:04:52.879Z,15.80
2023-02-28T04:08:16.245Z,14.70
2023-02-28T04:11:33.588Z,13.60
2023-02-28T04:15:51.919Z,13.80
2023-02-28T04:19:03.262Z,12.80
2023-02-28T04:22:28.058Z,12.70
2023-02-28T04:25:47.765Z,13.50
2023-02-28T04:33:45.681Z,12.70
2023-02-28T04:37:19.526Z,13.80
2023-02-28T04:40:22.546Z,14.40
2023-02-28T04:43:26.698Z,13.10
2023-02-28T04:46:40.168Z,13.50
2023-02-28T04:49:44.137Z,14.60
2023-02-28T04:52:50.109Z,14.20
2023-02-28T04:55:53.312Z,14.10
2023-02-28T05:07:25.181Z,12.40
2023-02-28T05:10:27.972Z,12.70
2023-02-28T05:13:31.148Z,12.80
2023-02-28T05:16:34.290Z,13.20
2023-02-28T05:19:37.854Z,13.30
2023-02-28T05:22:42.177Z,13.10
2023-02-28T05:25:44.988Z,12.50
2023-02-28T05:28:47.844Z,12.40
2023-02-28T05:31:51.332Z,12.50
2023-02-28T05:34:54.354Z,13.40
2023-02-28T05:37:57.177Z,13.10
2023-02-28T05:41:00.112Z,13.30
2023-02-28T05:44:02.984Z,12.70
2023-02-28T05:47:05.719Z,12.70
2023-02-28T05:50:10.595Z,9.70
2023-02-28T05:53:13.447Z,9.30
2023-02-28T05:56:16.563Z,10.40
2023-02-28T05:59:19.349Z,12.00
2023-02-28T06:02:22.233Z,12.40
2023-02-28T06:05:25.618Z,13.20
2023-02-28T06:08:28.855Z,14.90
2023-02-28T06:11:32.275Z,18.80
2023-02-28T06:14:35.551Z,17.90
2023-02-28T06:17:38.403Z,17.40
2023-02-28T06:20:41.468Z,17.80
2023-02-28T06:23:45.129Z,18.60
2023-02-28T06:26:48.345Z,19.40
2023-02-28T06:29:56.774Z,20.80
2023-02-28T06:32:59.776Z,20.60
2023-02-28T06:36:02.679Z,19.90
2023-02-28T06:39:05.897Z,21.80
2023-02-28T06:42:08.691Z,25.20
2023-02-28T06:45:12.722Z,23.80
2023-02-28T06:48:15.543Z,23.50
2023-02-28T06:51:23.249Z,16.50
2023-02-28T06:54:26.683Z,14.90
2023-02-28T06:57:34.033Z,14.10
2023-02-28T07:00:37.216Z,15.90
2023-02-28T07:03:40.265Z,16.60
2023-02-28T07:06:44.725Z,17.80
2023-02-28T07:09:48.062Z,18.90
2023-02-28T07:12:52.371Z,20.00
2023-02-28T07:16:01.547Z,20.40
2023-02-28T07:19:04.690Z,20.80
2023-02-28T07:22:08.440Z,21.50
2023-02-28T07:25:33.809Z,20.70
2023-02-28T07:28:36.914Z,21.40
2023-02-28T07:31:40.632Z,21.30
2023-02-28T07:34:44.714Z,24.30
2023-02-28T07:37:48.234Z,23.70
2023-02-28T07:40:51.162Z,20.90
2023-02-28T07:43:58.323Z,22.00
2023-02-28T07:47:01.359Z,23.90
2023-02-28T07:50:04.695Z,17.60
2023-02-28T07:53:07.988Z,14.20
2023-02-28T07:56:11.900Z,13.20
2023-02-28T07:59:14.711Z,13.90
2023-02-28T08:02:19.901Z,12.80
2023-02-28T08:05:24.418Z,12.80
2023-02-28T08:08:30.306Z,12.50
2023-02-28T08:11:33.423Z,13.20
2023-02-28T08:14:37.143Z,13.60
2023-02-28T08:17:48.595Z,12.60
2023-02-28T08:20:56.689Z,11.90
2023-02-28T08:24:00.336Z,11.10
2023-02-28T08:27:03.339Z,9.50
2023-02-28T08:30:07.099Z,9.30
2023-02-28T08:33:10.275Z,8.40
2023-02-28T08:36:13.677Z,7.60
2023-02-28T08:39:16.527Z,5.80
2023-02-28T08:42:19.466Z,6.30
2023-02-28T08:45:24.618Z,5.70
2023-02-28T08:48:30.194Z,5.20
2023-02-28T08:51:33.519Z,4.30
2023-02-28T08:54:36.969Z,4.90
2023-02-28T08:57:39.919Z,5.30
2023-02-28T09:01:00.528Z,5.80
2023-02-28T09:04:03.691Z,5.90
2023-02-28T09:07:06.737Z,5.10
2023-02-28T09:10:10.621Z,4.70
2023-02-28T09:13:13.792Z,3.60
2023-02-28T09:16:17.766Z,3.00
2023-02-28T09:19:20.962Z,3.10
2023-02-28T09:22:24.011Z,2.90
2023-02-28T09:25:27.153Z,3.20
2023-02-28T09:29:00.242Z,3.10
2023-02-28T09:32:04.110Z,3.00
2023-02-28T09:35:07.756Z,2.00
2023-02-28T09:38:11.715Z,2.40
2023-02-28T09:41:18.456Z,2.60
2023-02-28T09:44:36.224Z,2.50
2023-02-28T09:47:45.159Z,2.70
2023-02-28T09:51:10.924Z,2.70
2023-02-28T09:54:20.048Z,3.00
2023-02-28T09:57:33.198Z,2.40
2023-02-28T10:00:41.464Z,2.20
2023-02-28T10:03:52.203Z,2.70
2023-02-28T10:06:55.298Z,2.60
2023-02-28T10:10:01.601Z,2.90
2023-02-28T10:13:14.192Z,2.80
2023-02-28T10:16:33.362Z,2.60
2023-02-28T10:19:47.449Z,2.60
2023-02-28T10:22:57.841Z,2.70
2023-02-28T10:26:11.511Z,3.40
2023-02-28T10:29:15.825Z,3.80
2023-02-28T10:32:21.502Z,4.40
2023-02-28T10:35:27.231Z,4.40
2023-02-28T10:38:41.631Z,4.50
2023-02-28T10:41:44.863Z,4.50
2023-02-28T10:44:48.097Z,3.60
2023-02-28T10:47:59.481Z,4.50
2023-02-28T10:51:05.088Z,4.20
2023-02-28T10:54:19.298Z,4.30
2023-02-28T10:57:27.229Z,4.70
2023-02-28T11:00:37.248Z,4.30
2023-02-28T11:03:40.253Z,4.50
2023-02-28T11:06:43.978Z,4.30
2023-02-28T11:09:51.198Z,4.80
2023-02-28T11:13:00.769Z,4.50
2023-02-28T11:16:08.226Z,4.60
2023-02-28T11:19:21.572Z,5.90
2023-02-28T11:22:30.851Z,4.90
2023-02-28T11:25:37.961Z,4.40
2023-02-28T11:28:42.925Z,4.60
2023-02-28T11:32:03.782Z,4.30
2023-02-28T11:35:24.547Z,4.70
2023-02-28T11:38:27.861Z,4.10
2023-02-28T11:41:59.671Z,5.00
2023-02-28T11:45:23.937Z,4.50
2023-02-28T11:48:52.060Z,3.80
2023-02-28T11:52:22.847Z,4.50
2023-02-28T11:55:36.413Z,4.00
2023-02-28T11:58:48.281Z,3.80
2023-02-28T12:02:17.478Z,3.60
2023-02-28T12:05:34.600Z,4.30
2023-02-28T12:09:04.481Z,4.90
2023-02-28T12:12:24.402Z,3.90
2023-02-28T12:16:09.778Z,4.20
2023-02-28T12:19:24.649Z,3.70
2023-02-28T12:22:33.390Z,4.40
2023-02-28T12:26:01.851Z,3.90
2023-02-28T12:29:15.309Z,4.30
2023-02-28T12:32:24.916Z,4.70
2023-02-28T12:35:39.904Z,4.20
2023-02-28T12:38:48.821Z,3.90
2023-02-28T12:42:03.291Z,4.30
2023-02-28T12:45:16.373Z,4.40
2023-02-28T12:48:35.052Z,5.00
2023-02-28T12:51:38.112Z,4.70
2023-02-28T12:55:22.093Z,5.00
2023-02-28T12:58:37.534Z,4.80
2023-02-28T13:01:48.768Z,4.70
2023-02-28T13:05:04.180Z,4.80
2023-02-28T13:08:34.242Z,4.60
2023-02-28T13:11:52.872Z,4.90
2023-02-28T13:15:05.285Z,4.50
2023-02-28T13:18:47.454Z,4.30
2023-02-28T13:21:51.824Z,5.00
2023-02-28T13:24:58.870Z,4.70
2023-02-28T13:28:05.311Z,4.60
2023-02-28T13:31:09.733Z,5.60
2023-02-28T13:34:17.345Z,5.50
2023-02-28T13:37:26.147Z,4.80
2023-02-28T13:40:38.918Z,4.60
2023-02-28T13:44:02.965Z,3.90
2023-02-28T13:47:21.641Z,4.20
2023-02-28T13:50:34.277Z,4.00
2023-02-28T13:54:00.458Z,3.90
2023-02-28T13:57:40.580Z,4.40
2023-02-28T14:01:06.509Z,4.10
2023-02-28T14:04:33.785Z,4.20
2023-02-28T14:07:48.291Z,3.60
2023-02-28T14:11:06.832Z,4.40
2023-02-28T14:14:30.933Z,3.90
2023-02-28T14:17:34.738Z,3.50
2023-02-28T14:20:38.098Z,3.60
2023-02-28T14:23:49.184Z,3.40
2023-02-28T14:27:07.328Z,3.50
2023-02-28T14:30:33.109Z,3.60
2023-02-28T14:33:56.226Z,3.30
2023-02-28T14:37:03.359Z,3.60
2023-02-28T14:40:16.256Z,4.10
2023-02-28T14:43:25.655Z,4.40
2023-02-28T14:46:40.884Z,4.30
2023-02-28T14:49:47.765Z,3.80
2023-02-28T14:52:56.158Z,3.50
2023-02-28T14:55:59.168Z,3.90
2023-02-28T14:59:39.465Z,3.80
2023-02-28T15:02:46.015Z,3.40
2023-02-28T15:06:03.534Z,3.80
2023-02-28T15:09:18.325Z,3.90
2023-02-28T15:12:21.693Z,3.90
2023-02-28T15:16:01.630Z,3.70
2023-02-28T15:19:25.333Z,3.50
2023-02-28T15:22:37.129Z,4.00
2023-02-28T15:25:41.574Z,3.90
2023-02-28T15:28:45.514Z,3.70
2023-02-28T15:32:11.805Z,4.50
2023-02-28T15:35:27.323Z,4.00
2023-02-28T15:38:30.912Z,4.60
2023-02-28T15:41:41.592Z,4.60
2023-02-28T15:44:44.621Z,5.10
2023-02-28T15:52:47.052Z,4.60
2023-02-28T15:56:01.517Z,4.50
2023-02-28T15:59:08.350Z,4.00
2023-02-28T16:02:18.771Z,4.20
2023-02-28T16:05:35.078Z,4.80
2023-02-28T16:08:37.942Z,4.70
2023-02-28T16:11:44.861Z,4.60
2023-02-28T16:14:51.648Z,4.80
2023-02-28T16:17:55.287Z,5.20
2023-02-28T16:20:58.269Z,5.30
2023-02-28T16:24:01.417Z,5.50
2023-02-28T16:27:04.625Z,5.50
2023-02-28T16:30:11.288Z,5.90
2023-02-28T16:33:26.904Z,6.30
2023-02-28T16:36:31.067Z,5.80
2023-02-28T16:39:34.058Z,6.70
2023-02-28T16:42:38.856Z,7.50
2023-02-28T16:45:42.000Z,8.70
2023-02-28T16:48:45.864Z,7.90
2023-02-28T16:51:48.840Z,8.00
2023-02-28T16:55:34.716Z,8.70
2023-02-28T16:58:38.072Z,8.70
2023-02-28T17:01:40.995Z,10.60
2023-02-28T17:04:44.167Z,9.10
2023-02-28T17:07:48.119Z,9.90
2023-02-28T17:11:57.850Z,8.70
2023-02-28T17:15:00.750Z,8.30
2023-02-28T17:18:04.649Z,9.40
2023-02-28T17:21:15.087Z,8.70
2023-02-28T17:24:28.905Z,9.40
2023-02-28T17:27:38.757Z,10.70
2023-02-28T17:30:48.122Z,11.60
2023-02-28T17:33:51.279Z,13.00
2023-02-28T17:36:54.220Z,10.50
2023-02-28T17:39:57.250Z,10.70
2023-02-28T17:43:35.014Z,10.30
2023-02-28T17:46:38.466Z,9.90
2023-02-28T17:49:42.722Z,11.80
2023-02-28T17:52:45.799Z,11.70
2023-02-28T17:55:48.952Z,11.30
2023-02-28T17:58:54.143Z,12.00
2023-02-28T18:01:56.956Z,11.30
2023-02-28T18:04:59.836Z,11.10
2023-02-28T18:08:03.984Z,10.80
2023-02-28T18:11:06.999Z,12.10
2023-02-28T18:15:22.123Z,13.00
2023-02-28T18:18:25.774Z,10.60
2023-02-28T18:22:10.101Z,11.10
2023-02-28T18:25:17.978Z,11.80
2023-02-28T18:28:21.094Z,11.40
2023-02-28T18:31:24.356Z,12.20
2023-02-28T18:34:28.413Z,11.60
2023-02-28T18:42:43.871Z,12.40
2023-02-28T18:45:46.774Z,14.30
2023-02-28T18:54:00.744Z,12.90
2023-02-28T18:57:04.040Z,12.80
2023-02-28T19:05:31.137Z,12.00
2023-02-28T19:08:34.166Z,13.00
2023-02-28T19:11:37.461Z,12.00
2023-02-28T19:19:16.421Z,11.40
2023-02-28T19:22:19.788Z,12.90
2023-02-28T19:30:20.797Z,13.20
2023-02-28T19:33:24.327Z,13.40
2023-02-28T19:36:27.760Z,14.60
2023-02-28T19:39:41.075Z,13.90
2023-02-28T19:42:44.053Z,14.80
2023-02-28T19:46:20.337Z,14.20
2023-02-28T19:49:24.880Z,14.40
2023-02-28T19:52:29.190Z,13.50
2023-02-28T19:55:43.574Z,14.00
2023-02-28T19:58:46.511Z,16.00
2023-02-28T20:01:49.813Z,15.00
2023-02-28T20:04:54.480Z,14.70
2023-02-28T20:07:57.333Z,15.50
2023-02-28T20:11:05.868Z,16.70
2023-02-28T20:14:09.024Z,16.80
2023-02-28T20:17:11.841Z,16.80
2023-02-28T20:20:14.772Z,16.80
2023-02-28T20:23:18.041Z,16.20
2023-02-28T20:26:20.966Z,15.60
2023-02-28T20:29:24.252Z,16.30
2023-02-28T20:32:27.542Z,15.00
2023-02-28T20:35:31.934Z,15.40
2023-02-28T20:38:34.776Z,15.40
2023-02-28T20:41:38.204Z,15.90
2023-02-28T20:44:41.464Z,14.10
2023-02-28T20:47:45.421Z,14.50
2023-02-28T20:50:52.107Z,14.40
2023-02-28T20:53:55.092Z,14.30
2023-02-28T20:56:57.950Z,14.70
2023-02-28T21:00:02.286Z,16.20
2023-02-28T21:03:06.142Z,21.90
2023-02-28T21:06:10.206Z,25.70
2023-02-28T21:09:15.106Z,19.30
2023-02-28T21:12:18.811Z,16.50
2023-02-28T21:15:22.865Z,14.40
2023-02-28T21:18:25.909Z,13.50
2023-02-28T21:21:33.767Z,13.10
2023-02-28T21:24:36.624Z,11.60
2023-02-28T21:27:39.514Z,12.30
2023-02-28T21:30:44.633Z,12.10
2023-02-28T21:33:48.176Z,13.00
2023-02-28T21:36:51.091Z,13.30
2023-02-28T21:40:00.241Z,12.70
2023-02-28T21:43:03.194Z,12.90
2023-02-28T21:46:14.674Z,11.90
2023-02-28T21:49:22.957Z,12.30
2023-02-28T21:52:25.951Z,12.80
2023-02-28T21:55:29.754Z,13.80
2023-02-28T21:59:07.138Z,13.80
2023-02-28T22:02:11.119Z,14.80
2023-02-28T22:05:14.049Z,14.70
2023-02-28T22:08:16.959Z,15.00
2023-02-28T22:11:21.451Z,16.60
2023-02-28T22:14:24.722Z,19.10
2023-02-28T22:17:27.501Z,20.10
2023-02-28T22:20:31.116Z,20.20
2023-02-28T22:23:37.166Z,17.80
2023-02-28T22:26:44.849Z,17.00
2023-02-28T22:30:11.245Z,15.90
2023-02-28T22:33:15.517Z,13.70
2023-02-28T22:36:23.670Z,13.30
2023-02-28T22:39:27.450Z,12.90
2023-02-28T22:42:36.444Z,12.80
2023-02-28T22:45:42.641Z,12.10
2023-02-28T22:48:48.210Z,11.80
2023-02-28T22:51:54.344Z,11.40
2023-02-28T22:54:59.016Z,11.70
2023-02-28T22:58:02.171Z,11.10
2023-02-28T23:01:44.065Z,11.80
2023-02-28T23:04:47.791Z,11.00
2023-02-28T23:07:51.074Z,12.30
2023-02-28T23:10:55.349Z,12.50
2023-02-28T23:14:04.062Z,11.00
2023-02-28T23:17:07.085Z,10.90
2023-02-28T23:20:12.067Z,11.30
2023-02-28T23:23:14.931Z,10.90
2023-02-28T23:26:18.092Z,11.60
2023-02-28T23:29:23.304Z,10.90
2023-02-28T23:32:58.619Z,11.50
2023-02-28T23:36:13.739Z,10.40
2023-02-28T23:39:21.510Z,12.20
2023-02-28T23:42:28.076Z,12.10
2023-02-28T23:45:37.422Z,13.90
2023-02-28T23:48:42.683Z,14.20
2023-02-28T23:51:50.788Z,15.60
2023-02-28T23:54:53.876Z,15.00
2023-02-28T23:57:56.846Z,14.80
